Time;durP1;ratioP1;P1;durP2;ratioP2;P2;SDS_P1;SDS_P2;PMS_P1;PMS_P2;Temp;Humidity;BMP_temperature;BMP_pressure;BME280_temperature;BME280_humidity;BME280_pressure;Samples;Min_cycle;Max_cycle;Signal;HPM_P1;HPM_P2
2024/02/15 00:00:03;;;;;;;;;;;9.90;99.90;;;-146.41;100.00;57768.22;5019106;28;1730;-68
2024/02/15 00:02:30;;;;;;;;;;;9.80;99.90;;;-146.41;100.00;57768.22;5015979;28;1531;-68
2024/02/15 00:04:57;;;;;;;;;;;9.90;99.90;;;-146.41;100.00;57768.22;5020770;28;1523;-68
2024/02/15 00:07:24;;;;;;;;;;;9.80;99.90;;;-146.41;100.00;57768.22;5020989;28;1525;-68
2024/02/15 00:09:51;;;;;;;;;;;9.80;99.90;;;-146.41;100.00;57768.22;5019035;28;1550;-68
2024/02/15 00:12:18;;;;;;;;;;;9.70;99.90;;;-146.41;100.00;57768.22;5017381;28;1559;-68
2024/02/15 00:14:46;;;;;;;;;;;9.70;99.90;;;-146.41;100.00;57768.22;5019599;28;1649;-68
2024/02/15 00:17:13;;;;;;;;;;;9.80;99.90;;;-146.41;100.00;57768.22;5017874;28;1485;-68
2024/02/15 00:19:41;;;;;;;;;;;9.70;99.90;;;-146.41;100.00;57768.22;5020619;28;1936;-68
2024/02/15 00:22:09;;;;;;;;;;;9.80;99.90;;;-146.41;100.00;57768.22;5020921;28;1535;-68
2024/02/15 00:24:41;;;;;;;;;;;9.80;99.90;;;-146.41;100.00;57768.22;5019935;28;1588;-68
2024/02/15 00:27:08;;;;;;;;;;;9.80;99.90;;;-146.41;100.00;57768.22;5004726;28;1552;-68
2024/02/15 00:29:35;;;;;;;;;;;9.80;99.90;;;-146.41;100.00;57768.22;5017518;28;1680;-68
2024/02/15 00:32:03;;;;;;;;;;;9.80;99.90;;;-146.41;100.00;57768.22;5016702;28;1609;-68
2024/02/15 00:34:30;;;;;;;;;;;9.80;99.90;;;-146.41;100.00;57768.22;5019322;28;1555;-68
2024/02/15 00:36:58;;;;;;;;;;;9.80;99.90;;;-146.41;100.00;57768.22;5019515;28;1376;-68
2024/02/15 00:39:24;;;;;;;;;;;9.80;99.90;;;-146.41;100.00;57768.22;5018070;28;1906;-68
2024/02/15 00:41:51;;;;;;;;;;;9.80;99.90;;;-146.41;100.00;57768.22;5020166;28;1374;-68
2024/02/15 00:44:18;;;;;;;;;;;9.90;99.90;;;-146.41;100.00;57768.22;5018420;28;1573;-68
2024/02/15 00:46:47;;;;;;;;;;;9.90;99.90;;;-146.41;100.00;57768.22;5018325;28;1491;-69
2024/02/15 00:49:15;;;;;;;;;;;9.80;99.90;;;-146.41;100.00;57768.22;5019926;28;1499;-68
2024/02/15 00:51:42;;;;;;;;;;;9.80;99.90;;;-146.41;100.00;57768.22;5026046;28;1904;-69
2024/02/15 00:54:09;;;;;;;;;;;9.90;99.90;;;-146.41;100.00;57768.22;5019937;28;1672;-68
2024/02/15 00:56:36;;;;;;;;;;;9.90;99.90;;;-146.41;100.00;57768.22;5021102;28;1742;-68
2024/02/15 00:59:03;;;;;;;;;;;9.90;99.90;;;-146.41;100.00;57768.22;5021205;28;1985;-67
2024/02/15 01:01:30;;;;;;;;;;;9.90;99.90;;;-146.41;100.00;57768.22;5022116;28;1423;-68
2024/02/15 01:03:57;;;;;;;;;;;9.90;99.90;;;-146.41;100.00;57768.22;5022925;28;1575;-68
2024/02/15 01:06:24;;;;;;;;;;;9.90;99.90;;;-146.41;100.00;57768.22;5023861;28;1487;-68
2024/02/15 01:08:51;;;;;;;;;;;9.90;99.90;;;-146.41;100.00;57768.22;5021704;28;1621;-69
2024/02/15 01:11:18;;;;;;;;;;;10.00;99.90;;;-146.41;100.00;57768.22;5023378;28;1713;-67
2024/02/15 01:13:45;;;;;;;;;;;9.90;99.90;;;-146.41;100.00;57768.22;5019782;28;1484;-68
2024/02/15 01:16:12;;;;;;;;;;;9.90;99.90;;;-146.41;100.00;57768.22;5023019;28;1527;-69
2024/02/15 01:18:39;;;;;;;;;;;9.90;99.90;;;-146.41;100.00;57768.22;5019694;28;1977;-68
2024/02/15 01:21:06;;;;;;;;;;;9.90;99.90;;;-146.41;100.00;57768.22;5020387;28;1452;-68
2024/02/15 01:23:36;;;;;;;;;;;9.90;99.90;;;-146.41;100.00;57768.22;5024427;28;1933;-69
2024/02/15 01:26:04;;;;;;;;;;;9.90;99.90;;;-146.41;100.00;57768.22;5022560;28;1503;-69
2024/02/15 01:28:32;;;;;;;;;;;9.80;99.90;;;-146.41;100.00;57768.22;5023881;28;1496;-68
2024/02/15 01:30:59;;;;;;;;;;;9.90;99.90;;;-146.41;100.00;57768.22;5022109;28;1553;-68
2024/02/15 01:33:26;;;;;;;;;;;9.80;99.90;;;-146.41;100.00;57768.22;5018314;28;1584;-69
2024/02/15 01:35:54;;;;;;;;;;;9.90;99.90;;;-146.41;100.00;57768.22;5021688;28;1611;-68
2024/02/15 01:38:21;;;;;;;;;;;9.90;99.90;;;-146.41;100.00;57768.22;5021687;28;1997;-68
2024/02/15 01:40:48;;;;;;;;;;;9.90;99.90;;;-146.41;100.00;57768.22;5020171;28;1187;-69
2024/02/15 01:43:15;;;;;;;;;;;9.90;99.90;;;-146.41;100.00;57768.22;5024037;28;1353;-68
2024/02/15 01:45:42;;;;;;;;;;;9.90;99.90;;;-146.41;100.00;57768.22;5024631;28;1466;-69
2024/02/15 01:48:10;;;;;;;;;;;9.90;99.90;;;-146.41;100.00;57768.22;5019472;28;1341;-68
2024/02/15 01:50:38;;;;;;;;;;;9.90;99.90;;;-146.41;100.00;57768.22;5019788;28;1295;-68
2024/02/15 01:53:08;;;;;;;;;;;9.90;99.90;;;-146.41;100.00;57768.22;5020067;28;1049;-68
2024/02/15 01:55:35;;;;;;;;;;;9.90;99.90;;;-146.41;100.00;57768.22;5021338;28;1399;-69
2024/02/15 01:58:03;;;;;;;;;;;9.90;99.90;;;-146.41;100.00;57768.22;5018874;28;2001;-68
2024/02/15 02:00:30;;;;;;;;;;;9.90;99.90;;;-146.41;100.00;57768.22;5019780;28;1176;-68
2024/02/15 02:03:02;;;;;;;;;;;9.80;99.90;;;-146.41;100.00;57768.22;5014902;28;1440;-69
2024/02/15 02:05:30;;;;;;;;;;;9.90;99.90;;;-146.41;100.00;57768.22;5020326;28;1297;-69
2024/02/15 02:08:01;;;;;;;;;;;10.00;99.90;;;-146.41;100.00;57768.22;5019048;28;1448;-69
2024/02/15 02:10:32;;;;;;;;;;;9.90;99.90;;;-146.41;100.00;57768.22;5020177;28;1109;-68
2024/02/15 02:13:02;;;;;;;;;;;10.00;99.90;;;-146.41;100.00;57768.22;5021117;28;1246;-68
2024/02/15 02:15:31;;;;;;;;;;;9.90;99.90;;;-146.41;100.00;57768.22;5018204;28;1561;-68
2024/02/15 02:18:03;;;;;;;;;;;10.00;99.90;;;-146.41;100.00;57768.22;5021053;28;1987;-69
2024/02/15 02:20:30;;;;;;;;;;;10.00;99.90;;;-146.41;100.00;57768.22;5019527;28;1464;-68
2024/02/15 02:23:07;;;;;;;;;;;10.00;99.90;;;-146.41;100.00;57768.22;5022880;28;1294;-68
2024/02/15 02:25:34;;;;;;;;;;;10.00;99.90;;;-146.41;100.00;57768.22;5019248;28;1924;-68
2024/02/15 02:28:02;;;;;;;;;;;10.00;99.90;;;-146.41;100.00;57768.22;5017865;28;1435;-68
2024/02/15 02:30:32;;;;;;;;;;;10.00;99.90;;;-146.41;100.00;57768.22;5018829;28;1290;-68
2024/02/15 02:32:59;;;;;;;;;;;10.00;99.90;;;-146.41;100.00;57768.22;5021306;28;1513;-68
2024/02/15 02:35:27;;;;;;;;;;;9.90;99.90;;;-146.41;100.00;57768.22;5022305;28;1256;-68
2024/02/15 02:37:54;;;;;;;;;;;9.90;99.90;;;-146.41;100.00;57768.22;5020664;28;1373;-68
2024/02/15 02:40:21;;;;;;;;;;;9.90;99.90;;;-146.41;100.00;57768.22;5020025;28;1906;-68
2024/02/15 02:42:50;;;;;;;;;;;9.90;99.90;;;-146.41;100.00;57768.22;5019329;28;1357;-68
2024/02/15 02:45:22;;;;;;;;;;;9.90;99.90;;;-146.41;100.00;57768.22;5021856;28;1532;-67
2024/02/15 02:47:49;;;;;;;;;;;9.90;99.90;;;-146.41;100.00;57768.22;5020707;28;1467;-68
2024/02/15 02:50:23;;;;;;;;;;;9.90;99.90;;;-146.41;100.00;57768.22;5021374;28;1287;-68
2024/02/15 02:52:50;;;;;;;;;;;9.90;99.90;;;-146.41;100.00;57768.22;5018644;28;1250;-68
2024/02/15 02:55:17;;;;;;;;;;;9.90;99.90;;;-146.41;100.00;57768.22;5020852;28;1355;-68
2024/02/15 02:57:44;;;;;;;;;;;9.80;99.90;;;-146.41;100.00;57768.22;5019798;28;1317;-68
2024/02/15 03:00:14;;;;;;;;;;;9.80;99.90;;;-146.41;100.00;57768.22;5018610;28;1902;-69
2024/02/15 03:02:45;;;;;;;;;;;9.90;99.90;;;-146.41;100.00;57768.22;5018012;28;1164;-68
2024/02/15 03:05:15;;;;;;;;;;;9.90;99.90;;;-146.41;100.00;57768.22;5019470;28;1467;-68
2024/02/15 03:07:42;;;;;;;;;;;9.90;99.90;;;-146.41;100.00;57768.22;5020501;28;1322;-68
2024/02/15 03:10:13;;;;;;;;;;;9.90;99.90;;;-146.41;100.00;57768.22;5018061;28;1019;-68
2024/02/15 03:12:40;;;;;;;;;;;9.90;99.90;;;-146.41;100.00;57768.22;5020030;28;1219;-67
2024/02/15 03:15:11;;;;;;;;;;;9.80;99.90;;;-146.41;100.00;57768.22;5019648;28;1335;-68
2024/02/15 03:17:43;;;;;;;;;;;9.80;99.90;;;-146.41;100.00;57768.22;5019838;28;1311;-68
2024/02/15 03:20:12;;;;;;;;;;;9.90;99.90;;;-146.41;100.00;57768.22;5004782;28;1903;-68
2024/02/15 03:22:39;;;;;;;;;;;9.90;99.90;;;-146.41;100.00;57768.22;5019631;28;1571;-68
2024/02/15 03:25:07;;;;;;;;;;;9.80;99.90;;;-146.41;100.00;57768.22;5020282;28;1359;-68
2024/02/15 03:27:37;;;;;;;;;;;9.80;99.90;;;-146.41;100.00;57768.22;5021281;28;1314;-69
2024/02/15 03:30:04;;;;;;;;;;;9.90;99.90;;;-146.41;100.00;57768.22;5022385;28;1146;-68
2024/02/15 03:32:31;;;;;;;;;;;9.90;99.90;;;-146.41;100.00;57768.22;5021744;28;1607;-69
2024/02/15 03:35:00;;;;;;;;;;;9.90;99.90;;;-146.41;100.00;57768.22;5021733;28;1476;-68
2024/02/15 03:37:27;;;;;;;;;;;9.90;99.90;;;-146.41;100.00;57768.22;5020118;28;1190;-68
2024/02/15 03:39:54;;;;;;;;;;;9.80;99.90;;;-146.41;100.00;57768.22;5020962;28;1987;-68
2024/02/15 03:42:21;;;;;;;;;;;9.90;99.90;;;-146.41;100.00;57768.22;5019219;28;1004;-68
2024/02/15 03:44:48;;;;;;;;;;;9.90;99.90;;;-146.41;100.00;57768.22;5020321;28;1417;-68
2024/02/15 03:47:15;;;;;;;;;;;9.80;99.90;;;-146.41;100.00;57768.22;5024826;28;1192;-68
2024/02/15 03:49:42;;;;;;;;;;;9.80;99.90;;;-146.41;100.00;57768.22;5016999;28;1402;-69
2024/02/15 03:52:10;;;;;;;;;;;9.80;99.90;;;-146.41;100.00;57768.22;5018056;28;1211;-69
2024/02/15 03:54:37;;;;;;;;;;;9.80;99.90;;;-146.41;100.00;57768.22;5019159;28;1414;-69
2024/02/15 03:57:06;;;;;;;;;;;9.80;99.90;;;-146.41;100.00;57768.22;5018156;28;1952;-67
2024/02/15 03:59:34;;;;;;;;;;;9.80;99.90;;;-146.41;100.00;57768.22;5018141;28;1938;-68
2024/02/15 04:02:03;;;;;;;;;;;9.80;99.90;;;-146.41;100.00;57768.22;5018579;28;1226;-69
2024/02/15 04:04:30;;;;;;;;;;;9.80;99.90;;;-146.41;100.00;57768.22;5016890;28;1390;-68
2024/02/15 04:06:58;;;;;;;;;;;9.80;99.90;;;-146.41;100.00;57768.22;5017776;28;1136;-68
2024/02/15 04:09:25;;;;;;;;;;;9.80;99.90;;;-146.41;100.00;57768.22;5017072;28;1213;-68
2024/02/15 04:11:52;;;;;;;;;;;9.90;99.90;;;-146.41;100.00;57768.22;5020088;28;1329;-68
2024/02/15 04:14:20;;;;;;;;;;;9.90;99.90;;;-146.41;100.00;57768.22;5021976;28;1442;-69
2024/02/15 04:16:47;;;;;;;;;;;9.90;99.90;;;-146.41;100.00;57768.22;5018349;28;1175;-68
2024/02/15 04:19:15;;;;;;;;;;;9.90;99.90;;;-146.41;100.00;57768.22;5019608;28;1981;-68
2024/02/15 04:21:43;;;;;;;;;;;9.90;99.90;;;-146.41;100.00;57768.22;5020068;28;1199;-68
2024/02/15 04:24:10;;;;;;;;;;;9.90;99.90;;;-146.41;100.00;57768.22;5022025;28;1490;-68
2024/02/15 04:26:38;;;;;;;;;;;9.80;99.90;;;-146.41;100.00;57768.22;5024332;28;1174;-68
2024/02/15 04:29:08;;;;;;;;;;;9.90;99.90;;;-146.41;100.00;57768.22;4998699;28;1560;-68
2024/02/15 04:31:39;;;;;;;;;;;9.80;99.90;;;-146.41;100.00;57768.22;5022733;28;1239;-68
2024/02/15 04:34:06;;;;;;;;;;;9.90;99.90;;;-146.41;100.00;57768.22;5023069;28;1643;-69
2024/02/15 04:36:34;;;;;;;;;;;9.90;99.90;;;-146.41;100.00;57768.22;5023563;28;1249;-68
2024/02/15 04:39:04;;;;;;;;;;;9.90;99.90;;;-146.41;100.00;57768.22;5023324;28;1918;-69
2024/02/15 04:41:31;;;;;;;;;;;9.90;99.90;;;-146.41;100.00;57768.22;5022690;28;1202;-68
2024/02/15 04:43:58;;;;;;;;;;;9.90;99.90;;;-146.41;100.00;57768.22;5023986;28;1353;-68
2024/02/15 04:46:26;;;;;;;;;;;9.90;99.90;;;-146.41;100.00;57768.22;5020277;28;1215;-69
2024/02/15 04:48:53;;;;;;;;;;;9.90;99.90;;;-146.41;100.00;57768.22;5021393;28;1516;-68
2024/02/15 04:51:20;;;;;;;;;;;9.90;99.90;;;-146.41;100.00;57768.22;5022364;28;1455;-68
2024/02/15 04:53:48;;;;;;;;;;;9.90;99.90;;;-146.41;100.00;57768.22;5022837;28;1280;-69
2024/02/15 04:56:16;;;;;;;;;;;9.90;99.90;;;-146.41;100.00;57768.22;5021090;28;1379;-68
2024/02/15 04:58:47;;;;;;;;;;;9.90;99.90;;;-146.41;100.00;57768.22;5020633;28;1983;-68
2024/02/15 05:01:15;;;;;;;;;;;9.90;99.90;;;-146.41;100.00;57768.22;5020159;28;1414;-69
2024/02/15 05:03:45;;;;;;;;;;;9.90;99.90;;;-146.41;100.00;57768.22;5019104;28;1338;-68
2024/02/15 05:06:12;;;;;;;;;;;9.90;99.90;;;-146.41;100.00;57768.22;5020586;28;1292;-68
2024/02/15 05:08:42;;;;;;;;;;;9.90;99.90;;;-146.41;100.00;57768.22;5023682;28;1347;-69
2024/02/15 05:11:17;;;;;;;;;;;9.90;99.90;;;-146.41;100.00;57768.22;5020111;28;1405;-69
2024/02/15 05:13:45;;;;;;;;;;;9.80;99.90;;;-146.41;100.00;57768.22;5021408;28;1253;-68
2024/02/15 05:16:12;;;;;;;;;;;9.80;99.90;;;-146.41;100.00;57768.22;5019585;28;1413;-68
2024/02/15 05:18:42;;;;;;;;;;;9.70;99.90;;;-146.41;100.00;57768.22;5023792;28;1402;-69
2024/02/15 05:21:09;;;;;;;;;;;9.70;99.90;;;-146.41;100.00;57768.22;5024194;28;1971;-68
2024/02/15 05:23:37;;;;;;;;;;;9.70;99.90;;;-146.41;100.00;57768.22;5023439;28;1584;-68
2024/02/15 05:26:04;;;;;;;;;;;9.70;99.90;;;-146.41;100.00;57768.22;5023136;28;1442;-68
2024/02/15 05:28:31;;;;;;;;;;;9.70;99.90;;;-146.41;100.00;57768.22;5022062;28;1959;-68
2024/02/15 05:31:19;;;;;;;;;;;9.70;99.90;;;-146.41;100.00;57768.22;5021339;28;1437;-68
2024/02/15 05:33:47;;;;;;;;;;;9.70;99.90;;;-146.41;100.00;57768.22;5018973;28;1539;-68
2024/02/15 05:36:21;;;;;;;;;;;9.70;99.90;;;-146.41;100.00;57768.22;5022840;28;1398;-68
2024/02/15 05:38:53;;;;;;;;;;;9.70;99.90;;;-146.41;100.00;57768.22;5020715;28;1422;-68
2024/02/15 05:41:20;;;;;;;;;;;9.70;99.90;;;-146.41;100.00;57768.22;5021698;28;1227;-69
2024/02/15 05:43:52;;;;;;;;;;;9.70;99.90;;;-146.41;100.00;57768.22;5023235;28;1231;-68
2024/02/15 05:46:22;;;;;;;;;;;9.70;99.90;;;-146.41;100.00;57768.22;5020154;28;1376;-68
2024/02/15 05:48:53;;;;;;;;;;;9.70;99.90;;;-146.41;100.00;57768.22;5017805;28;1362;-69
2024/02/15 05:51:21;;;;;;;;;;;9.60;99.90;;;-146.41;100.00;57768.22;5006550;28;1172;-68
2024/02/15 05:53:49;;;;;;;;;;;9.50;99.90;;;-146.41;100.00;57768.22;5007249;28;1401;-68
2024/02/15 05:56:16;;;;;;;;;;;9.50;99.90;;;-146.41;100.00;57768.22;5020116;28;1603;-69
2024/02/15 05:58:44;;;;;;;;;;;9.40;99.90;;;-146.41;100.00;57768.22;5021287;28;1428;-68
2024/02/15 06:01:12;;;;;;;;;;;9.30;99.90;;;-146.41;100.00;57768.22;5020576;28;1977;-68
2024/02/15 06:03:41;;;;;;;;;;;9.20;99.90;;;-146.41;100.00;57768.22;5019983;28;1191;-68
2024/02/15 06:06:08;;;;;;;;;;;9.20;99.90;;;-146.41;100.00;57768.22;5023307;28;1382;-67
2024/02/15 06:08:36;;;;;;;;;;;9.10;99.90;;;-146.41;100.00;57768.22;5023626;28;1214;-68
2024/02/15 06:11:05;;;;;;;;;;;9.00;99.90;;;-146.41;100.00;57768.22;5019991;28;1793;-67
2024/02/15 06:13:31;;;;;;;;;;;8.90;99.90;;;-146.41;100.00;57768.22;5016631;28;1116;-69
2024/02/15 06:15:58;;;;;;;;;;;8.80;99.90;;;-146.41;100.00;57768.22;5018723;28;1387;-68
2024/02/15 06:18:28;;;;;;;;;;;8.80;99.90;;;-146.41;100.00;57768.22;5022946;28;1375;-68
2024/02/15 06:21:02;;;;;;;;;;;8.70;99.90;;;-146.41;100.00;57768.22;5017963;28;1914;-68
2024/02/15 06:23:29;;;;;;;;;;;8.70;99.90;;;-146.41;100.00;57768.22;5018483;28;1101;-69
2024/02/15 06:26:02;;;;;;;;;;;8.70;99.90;;;-146.41;100.00;57768.22;5021588;28;1316;-68
2024/02/15 06:39:49;;;;;;;;;;;8.70;99.90;;;-146.41;100.00;57768.22;5020057;28;1906;-69
2024/02/15 06:42:19;;;;;;;;;;;8.80;99.90;;;-146.41;100.00;57768.22;5018696;28;1084;-68
2024/02/15 06:44:48;;;;;;;;;;;8.70;99.90;;;-146.41;100.00;57768.22;5018427;28;1252;-68
2024/02/15 06:47:18;;;;;;;;;;;8.60;99.90;;;-146.41;100.00;57768.22;5021080;28;1329;-68
2024/02/15 06:49:51;;;;;;;;;;;8.60;99.90;;;-146.41;100.00;57768.22;5018535;28;1378;-68
2024/02/15 06:52:18;;;;;;;;;;;8.60;99.90;;;-146.41;100.00;57768.22;5024518;28;1169;-68
2024/02/15 06:54:45;;;;;;;;;;;8.60;99.90;;;-146.41;100.00;57768.22;5017387;28;1245;-68
2024/02/15 06:57:12;;;;;;;;;;;8.60;99.90;;;-146.41;100.00;57768.22;5019340;28;1369;-68
2024/02/15 06:59:40;;;;;;;;;;;8.60;99.90;;;-146.41;100.00;57768.22;5020670;28;1967;-68
2024/02/15 07:02:07;;;;;;;;;;;8.50;99.90;;;-146.41;100.00;57768.22;5016562;28;1178;-68
2024/02/15 07:04:36;;;;;;;;;;;8.50;99.90;;;-146.41;100.00;57768.22;5017299;28;1385;-68
2024/02/15 07:07:04;;;;;;;;;;;8.40;99.90;;;-146.41;100.00;57768.22;5018768;28;1307;-69
2024/02/15 07:09:32;;;;;;;;;;;8.40;99.90;;;-146.41;100.00;57768.22;5016569;28;1345;-68
2024/02/15 07:11:59;;;;;;;;;;;8.30;99.90;;;-146.41;100.00;57768.22;5018406;28;1649;-68
2024/02/15 07:14:29;;;;;;;;;;;8.30;99.90;;;-146.41;100.00;57768.22;5018896;28;1280;-68
2024/02/15 07:16:59;;;;;;;;;;;8.30;99.90;;;-146.41;100.00;57768.22;5017427;28;1461;-68
2024/02/15 07:19:27;;;;;;;;;;;8.30;99.90;;;-146.41;100.00;57768.22;5002160;28;1999;-69
2024/02/15 07:21:56;;;;;;;;;;;8.30;99.90;;;-146.41;100.00;57768.22;5018211;28;1383;-67
2024/02/15 07:24:26;;;;;;;;;;;8.40;99.90;;;-146.41;100.00;57768.22;5017499;28;1319;-68
2024/02/15 07:26:57;;;;;;;;;;;8.50;99.90;;;-146.41;100.00;57768.22;5018026;28;1612;-68
2024/02/15 07:29:25;;;;;;;;;;;8.50;99.90;;;-146.41;100.00;57768.22;5020146;28;1617;-68
2024/02/15 07:31:52;;;;;;;;;;;8.50;99.90;;;-146.41;100.00;57768.22;5018384;28;1760;-68
2024/02/15 07:34:19;;;;;;;;;;;8.50;99.90;;;-146.41;100.00;57768.22;5016347;28;1871;-69
2024/02/15 07:36:47;;;;;;;;;;;8.60;99.90;;;-146.41;100.00;57768.22;5020563;28;1662;-68
2024/02/15 07:39:22;;;;;;;;;;;8.60;99.90;;;-146.41;100.00;57768.22;5016324;28;1633;-68
2024/02/15 07:41:51;;;;;;;;;;;8.70;99.90;;;-146.41;100.00;57768.22;5018051;28;1022;-68
2024/02/15 07:44:18;;;;;;;;;;;8.70;99.90;;;-146.41;100.00;57768.22;5018222;28;1395;-68
2024/02/15 07:46:46;;;;;;;;;;;8.70;99.90;;;-146.41;100.00;57768.22;5020868;28;1836;-68
2024/02/15 07:49:13;;;;;;;;;;;8.80;99.90;;;-146.41;100.00;57768.22;5017425;28;1642;-68
2024/02/15 07:51:40;;;;;;;;;;;8.80;99.90;;;-146.41;100.00;57768.22;5016759;28;1679;-68
2024/02/15 07:54:07;;;;;;;;;;;8.90;99.90;;;-146.41;100.00;57768.22;5019473;28;1501;-68
2024/02/15 07:56:35;;;;;;;;;;;8.90;99.90;;;-146.41;100.00;57768.22;5015852;28;1283;-67
2024/02/15 07:59:02;;;;;;;;;;;8.90;99.90;;;-146.41;100.00;57768.22;5008046;28;1067;-68
2024/02/15 08:01:31;;;;;;;;;;;9.10;99.90;;;-146.41;100.00;57768.22;5013772;28;1926;-68
2024/02/15 08:03:58;;;;;;;;;;;9.20;99.90;;;-146.41;100.00;57768.22;5017233;28;1114;-68
2024/02/15 08:06:27;;;;;;;;;;;9.30;99.90;;;-146.41;100.00;57768.22;5015638;28;1068;-68
2024/02/15 08:08:55;;;;;;;;;;;9.60;99.90;;;-146.41;100.00;57768.22;5018010;28;1037;-68
2024/02/15 08:11:23;;;;;;;;;;;9.70;99.90;;;-146.41;100.00;57768.22;5012323;28;1042;-68
2024/02/15 08:13:53;;;;;;;;;;;9.80;99.90;;;-146.41;100.00;57768.22;5015028;28;1206;-68
2024/02/15 08:16:22;;;;;;;;;;;9.80;99.90;;;-146.41;100.00;57768.22;5016477;28;1328;-68
2024/02/15 08:18:54;;;;;;;;;;;9.90;99.90;;;-146.41;100.00;57768.22;5015340;28;1237;-68
2024/02/15 08:21:32;;;;;;;;;;;10.10;99.90;;;-146.41;100.00;57768.22;5016128;28;1971;-68
2024/02/15 08:24:01;;;;;;;;;;;10.40;99.90;;;-146.41;100.00;57768.22;5017528;28;1699;-68
2024/02/15 08:26:29;;;;;;;;;;;11.00;99.90;;;-146.41;100.00;57768.22;5019673;28;1104;-68
2024/02/15 08:28:56;;;;;;;;;;;11.20;99.90;;;-146.41;100.00;57768.22;5014065;28;1815;-68
2024/02/15 08:31:23;;;;;;;;;;;11.30;99.90;;;-146.41;100.00;57768.22;5021195;28;1934;-68
2024/02/15 08:33:50;;;;;;;;;;;11.30;99.90;;;-146.41;100.00;57768.22;5015183;28;1045;-68
2024/02/15 08:36:18;;;;;;;;;;;11.40;99.90;;;-146.41;100.00;57768.22;5019426;28;1700;-68
2024/02/15 08:38:46;;;;;;;;;;;11.30;99.90;;;-146.41;100.00;57768.22;5020094;28;1669;-68
2024/02/15 08:41:13;;;;;;;;;;;11.30;99.90;;;-146.41;100.00;57768.22;5017970;28;1977;-68
2024/02/15 08:43:41;;;;;;;;;;;11.40;99.90;;;-146.41;100.00;57768.22;5019022;28;1068;-68
2024/02/15 08:46:08;;;;;;;;;;;11.50;99.90;;;-146.41;100.00;57768.22;5016104;28;2056;-68
2024/02/15 08:48:35;;;;;;;;;;;11.40;99.90;;;-146.41;100.00;57768.22;5017760;28;1692;-68
2024/02/15 08:51:03;;;;;;;;;;;11.50;99.90;;;-146.41;100.00;57768.22;5018605;28;1653;-69
2024/02/15 08:53:31;;;;;;;;;;;11.60;99.90;;;-146.41;100.00;57768.22;5017527;28;1089;-68
2024/02/15 08:55:59;;;;;;;;;;;11.70;99.90;;;-146.41;100.00;57768.22;5014504;28;1596;-68
2024/02/15 08:58:26;;;;;;;;;;;11.70;99.90;;;-146.41;100.00;57768.22;5015662;28;1669;-69
2024/02/15 09:00:54;;;;;;;;;;;11.70;99.90;;;-146.41;100.00;57768.22;5016805;28;1896;-68
2024/02/15 09:03:21;;;;;;;;;;;11.70;99.90;;;-146.41;100.00;57768.22;5016780;28;1756;-68
2024/02/15 09:05:48;;;;;;;;;;;11.80;99.90;;;-146.41;100.00;57768.22;5013377;28;1458;-68
2024/02/15 09:08:20;;;;;;;;;;;11.80;99.90;;;-146.41;100.00;57768.22;5017507;28;990;-68
2024/02/15 09:10:49;;;;;;;;;;;11.90;99.90;;;-146.41;100.00;57768.22;5021208;28;1024;-69
2024/02/15 09:13:16;;;;;;;;;;;12.00;99.90;;;-146.41;100.00;57768.22;5016861;28;1872;-68
2024/02/15 09:15:43;;;;;;;;;;;12.00;99.90;;;-146.41;100.00;57768.22;5018163;28;1863;-68
2024/02/15 09:18:10;;;;;;;;;;;12.10;99.90;;;-146.41;100.00;57768.22;5018886;28;1682;-68
2024/02/15 09:20:40;;;;;;;;;;;12.10;99.90;;;-146.41;100.00;57768.22;5024712;28;1903;-68
2024/02/15 09:23:09;;;;;;;;;;;12.20;99.90;;;-146.41;100.00;57768.22;5020690;28;1102;-69
2024/02/15 09:25:39;;;;;;;;;;;12.30;99.90;;;-146.41;100.00;57768.22;5022387;28;1315;-68
2024/02/15 09:28:06;;;;;;;;;;;12.40;99.90;;;-146.41;100.00;57768.22;5021236;28;1845;-69
2024/02/15 09:30:35;;;;;;;;;;;12.40;99.90;;;-146.41;100.00;57768.22;5019147;28;1594;-68
2024/02/15 09:33:05;;;;;;;;;;;12.40;99.90;;;-146.41;100.00;57768.22;5022065;28;1740;-68
2024/02/15 09:35:32;;;;;;;;;;;12.50;99.90;;;-146.41;100.00;57768.22;5021584;28;2046;-69
2024/02/15 09:37:59;;;;;;;;;;;12.50;99.90;;;-146.41;100.00;57768.22;5018855;28;1749;-68
2024/02/15 09:40:29;;;;;;;;;;;12.40;99.90;;;-146.41;100.00;57768.22;5020528;28;1977;-68
2024/02/15 09:42:56;;;;;;;;;;;12.30;99.90;;;-146.41;100.00;57768.22;5018711;28;1711;-68
2024/02/15 09:45:24;;;;;;;;;;;12.30;99.90;;;-146.41;100.00;57768.22;5016174;28;1319;-68
2024/02/15 09:47:53;;;;;;;;;;;12.40;99.90;;;-146.41;100.00;57768.22;5020907;28;1046;-68
2024/02/15 09:50:22;;;;;;;;;;;12.40;99.90;;;-146.41;100.00;57768.22;5019767;28;1061;-68
2024/02/15 09:52:52;;;;;;;;;;;12.40;99.90;;;-146.41;100.00;57768.22;5020518;28;1678;-67
2024/02/15 09:55:22;;;;;;;;;;;12.30;99.90;;;-146.41;100.00;57768.22;5017855;28;1320;-68
2024/02/15 09:57:50;;;;;;;;;;;12.40;99.90;;;-146.41;100.00;57768.22;5021494;28;1058;-68
2024/02/15 10:00:17;;;;;;;;;;;12.50;99.90;;;-146.41;100.00;57768.22;5020341;28;1996;-68
2024/02/15 10:02:47;;;;;;;;;;;12.70;99.90;;;-146.41;100.00;57768.22;5019440;28;1088;-69
2024/02/15 10:05:14;;;;;;;;;;;12.80;99.90;;;-146.41;100.00;57768.22;5018469;28;1253;-67
2024/02/15 10:07:45;;;;;;;;;;;;;;;-146.41;100.00;57768.22;5016554;28;1554;-69
2024/02/15 10:10:21;;;;;;;;;;;13.00;99.90;;;-146.41;100.00;57768.22;5014829;28;1368;-68
2024/02/15 10:12:51;;;;;;;;;;;13.10;99.90;;;-146.41;100.00;57768.22;5017170;28;1779;-68
2024/02/15 10:15:37;;;;;;;;;;;13.20;99.90;;;-146.41;100.00;57768.22;5020769;28;1348;-68
2024/02/15 10:18:11;;;;;;;;;;;13.20;99.90;;;-146.41;100.00;57768.22;5021256;28;1709;-68
2024/02/15 10:20:44;;;;;;;;;;;13.20;99.90;;;-146.41;100.00;57768.22;5017718;28;1985;-69
2024/02/15 10:23:14;;;;;;;;;;;13.20;99.90;;;-146.41;100.00;57768.22;5020212;28;1205;-68
2024/02/15 10:25:44;;;;;;;;;;;13.20;99.90;;;-146.41;100.00;57768.22;5018149;28;1296;-69
2024/02/15 10:28:12;;;;;;;;;;;13.40;99.90;;;-146.41;100.00;57768.22;5019419;28;1701;-68
2024/02/15 10:30:43;;;;;;;;;;;13.50;99.90;;;-146.41;100.00;57768.22;5019422;28;1157;-69
2024/02/15 10:33:28;;;;;;;;;;;13.60;99.90;;;-146.41;100.00;57768.22;5022380;28;1685;-68
2024/02/15 10:36:07;;;;;;;;;;;13.60;99.90;;;-146.41;100.00;57768.22;5020423;28;1784;-69
2024/02/15 10:38:37;;;;;;;;;;;13.60;99.90;;;-146.41;100.00;57768.22;5018364;28;1399;-68
2024/02/15 10:41:06;;;;;;;;;;;13.70;99.90;;;-146.41;100.00;57768.22;5036551;28;1997;-68
2024/02/15 10:43:33;;;;;;;;;;;13.80;99.90;;;-146.41;100.00;57768.22;5016873;28;1612;-69
2024/02/15 10:46:01;;;;;;;;;;;13.70;99.90;;;-146.41;100.00;57768.22;5020708;28;1560;-68
2024/02/15 10:48:28;;;;;;;;;;;13.80;99.90;;;-146.41;100.00;57768.22;5023185;28;1393;-68
2024/02/15 10:51:03;;;;;;;;;;;13.90;99.90;;;-146.41;100.00;57768.22;5019644;28;1502;-69
2024/02/15 10:53:33;;;;;;;;;;;13.90;99.90;;;-146.41;100.00;57768.22;5021995;28;1409;-69
2024/02/15 10:56:26;;;;;;;;;;;13.90;99.90;;;-146.41;100.00;57768.22;5021332;28;1708;-69
2024/02/15 10:59:03;;;;;;;;;;;13.90;99.90;;;-146.41;100.00;57768.22;5018175;28;1999;-67
2024/02/15 11:01:32;;;;;;;;;;;13.90;99.90;;;-146.41;100.00;57768.22;5020716;28;1902;-68
2024/02/15 11:04:00;;;;;;;;;;;14.00;99.90;;;-146.41;100.00;57768.22;5018014;28;1865;-68
2024/02/15 11:06:29;;;;;;;;;;;14.00;99.90;;;-146.41;100.00;57768.22;5006563;28;1670;-68
2024/02/15 11:08:57;;;;;;;;;;;14.00;99.90;;;-146.41;100.00;57768.22;5016491;28;1691;-68
2024/02/15 11:11:25;;;;;;;;;;;14.00;99.90;;;-146.41;100.00;57768.22;5015783;28;1413;-68
2024/02/15 11:14:25;;;;;;;;;;;14.00;99.90;;;-146.41;100.00;57768.22;5021522;28;1386;-68
2024/02/15 11:16:51;;;;;;;;;;;14.00;99.90;;;-146.41;100.00;57768.22;5018733;28;1046;-69
2024/02/15 11:19:46;;;;;;;;;;;13.90;99.90;;;-146.41;100.00;57768.22;5019329;28;1724;-69
2024/02/15 11:22:15;;;;;;;;;;;13.90;99.90;;;-146.41;100.00;57768.22;5018339;28;1902;-69
2024/02/15 11:24:49;;;;;;;;;;;13.90;99.90;;;-146.41;100.00;57768.22;5017786;28;1363;-68